createdAt,value
2018-01-26T00:00:33.897Z,3.60
2018-01-26T00:03:02.248Z,3.37
2018-01-26T00:05:29.813Z,3.03
2018-01-26T00:07:57.401Z,3.33
2018-01-26T00:10:25.742Z,3.50
2018-01-26T00:12:54.097Z,3.30
2018-01-26T00:15:21.666Z,2.97
2018-01-26T00:17:49.265Z,3.30
2018-01-26T00:20:16.837Z,3.43
2018-01-26T00:22:45.202Z,3.63
2018-01-26T00:25:12.774Z,2.80
2018-01-26T00:27:40.368Z,3.40
2018-01-26T00:30:07.936Z,4.03
2018-01-26T00:32:35.525Z,4.27
2018-01-26T00:35:03.126Z,3.67
2018-01-26T00:37:30.725Z,3.77
2018-01-26T00:39:58.295Z,5.27
2018-01-26T00:42:25.884Z,5.03
2018-01-26T00:44:54.230Z,6.07
2018-01-26T00:47:21.830Z,5.67
2018-01-26T00:49:49.398Z,7.83
2018-01-26T00:52:17.018Z,7.23
2018-01-26T00:54:44.638Z,7.17
2018-01-26T00:57:12.233Z,7.27
2018-01-26T00:59:39.807Z,7.30
2018-01-26T01:02:07.395Z,7.93
2018-01-26T01:04:34.967Z,7.50
2018-01-26T01:07:02.557Z,7.13
2018-01-26T01:09:30.130Z,8.17
2018-01-26T01:11:57.721Z,8.67
2018-01-26T01:14:26.058Z,7.20
2018-01-26T01:16:53.625Z,7.37
2018-01-26T01:19:21.220Z,8.50
2018-01-26T01:21:48.804Z,8.33
2018-01-26T01:24:16.410Z,7.80
2018-01-26T01:26:44.007Z,7.87
2018-01-26T01:29:11.610Z,7.67
2018-01-26T01:31:39.181Z,7.30
2018-01-26T01:34:06.774Z,7.77
2018-01-26T01:36:35.111Z,7.67
2018-01-26T01:39:02.704Z,7.43
2018-01-26T01:41:30.279Z,7.33
2018-01-26T01:43:57.878Z,6.90
2018-01-26T01:46:25.454Z,6.30
2018-01-26T01:49:04.677Z,6.20
2018-01-26T01:51:32.254Z,7.47
2018-01-26T01:54:00.070Z,6.50
2018-01-26T01:56:27.640Z,5.27
2018-01-26T01:58:55.239Z,7.13
2018-01-26T02:01:22.808Z,5.73
2018-01-26T02:03:50.406Z,6.00
2018-01-26T02:06:17.973Z,5.67
2018-01-26T02:08:45.552Z,6.23
2018-01-26T02:11:13.117Z,5.63
2018-01-26T02:13:40.706Z,4.47
2018-01-26T02:16:09.040Z,4.43
2018-01-26T02:18:36.630Z,5.17
2018-01-26T02:21:04.201Z,4.77
2018-01-26T02:23:31.797Z,5.50
2018-01-26T02:25:59.357Z,4.87
2018-01-26T02:28:26.954Z,6.07
2018-01-26T02:30:54.528Z,6.27
2018-01-26T02:33:22.862Z,4.93
2018-01-26T02:35:50.454Z,4.77
2018-01-26T02:38:18.025Z,6.13
2018-01-26T02:40:45.618Z,5.30
2018-01-26T02:43:13.186Z,4.67
2018-01-26T02:45:40.774Z,5.63
2018-01-26T02:48:08.342Z,4.37
2018-01-26T02:50:35.936Z,3.30
2018-01-26T02:53:04.275Z,3.80
2018-01-26T02:55:31.865Z,4.30
2018-01-26T02:58:00.202Z,4.47
2018-01-26T03:00:27.789Z,4.60
2018-01-26T03:02:55.352Z,5.00
2018-01-26T03:05:22.937Z,4.90
2018-01-26T03:07:50.501Z,4.97
2018-01-26T03:10:18.093Z,4.43
2018-01-26T03:12:45.657Z,4.10
2018-01-26T03:15:13.249Z,4.40
2018-01-26T03:17:40.823Z,3.80
2018-01-26T03:20:08.408Z,3.80
2018-01-26T03:22:35.977Z,4.30
2018-01-26T03:25:03.572Z,4.50
2018-01-26T03:27:31.142Z,4.90
2018-01-26T03:29:58.734Z,5.20
2018-01-26T03:32:26.305Z,4.83
2018-01-26T03:34:53.889Z,5.03
2018-01-26T03:37:21.454Z,3.50
2018-01-26T03:39:49.036Z,3.07
2018-01-26T03:42:17.321Z,3.50
2018-01-26T03:44:44.905Z,3.77
2018-01-26T03:47:12.477Z,4.03
2018-01-26T03:49:40.069Z,4.03
2018-01-26T03:52:07.636Z,4.10
2018-01-26T03:54:35.198Z,3.00
2018-01-26T03:57:02.811Z,3.40
2018-01-26T03:59:30.410Z,2.67
2018-01-26T04:01:58.003Z,2.40
2018-01-26T04:04:26.337Z,2.33
2018-01-26T04:06:53.922Z,2.90
2018-01-26T04:09:21.490Z,2.07
2018-01-26T04:11:49.078Z,2.43
2018-01-26T04:14:16.649Z,2.67
2018-01-26T04:16:44.237Z,2.60
2018-01-26T04:19:11.793Z,3.60
2018-01-26T04:21:39.377Z,3.90
2018-01-26T04:24:07.701Z,3.70
2018-01-26T04:26:35.313Z,3.90
2018-01-26T04:29:02.875Z,3.23
2018-01-26T04:31:31.225Z,3.80
2018-01-26T04:33:58.793Z,2.80
2018-01-26T04:36:26.375Z,2.60
2018-01-26T04:38:54.711Z,3.23
2018-01-26T04:41:22.369Z,2.67
2018-01-26T04:43:49.937Z,7.80
2018-01-26T04:46:17.523Z,9.90
2018-01-26T04:48:46.200Z,5.00
2018-01-26T04:51:13.861Z,14.07
2018-01-26T04:53:41.661Z,7.27
2018-01-26T04:56:09.245Z,7.63
2018-01-26T04:58:36.958Z,6.53
2018-01-26T05:01:05.349Z,6.23
2018-01-26T05:03:33.689Z,17.17
2018-01-26T05:06:01.338Z,28.67
2018-01-26T05:08:30.162Z,12.70
2018-01-26T05:10:57.792Z,7.10
2018-01-26T05:13:25.796Z,5.50
2018-01-26T05:15:54.217Z,6.77
2018-01-26T05:18:21.804Z,6.30
2018-01-26T05:20:49.391Z,9.90
2018-01-26T05:23:16.978Z,7.67
2018-01-26T05:25:44.546Z,1.60
2018-01-26T05:28:12.136Z,1.50
2018-01-26T05:30:40.474Z,2.27
2018-01-26T05:33:08.065Z,2.40
2018-01-26T05:35:35.628Z,2.77
2018-01-26T05:38:03.210Z,2.90
2018-01-26T05:40:30.774Z,3.00
2018-01-26T05:42:59.138Z,3.17
2018-01-26T05:45:26.701Z,3.23
2018-01-26T05:47:54.302Z,11.10
2018-01-26T05:50:21.869Z,9.47
2018-01-26T05:52:49.454Z,3.47
2018-01-26T05:55:17.776Z,2.53
2018-01-26T05:57:45.374Z,2.93
2018-01-26T06:00:12.937Z,3.10
2018-01-26T06:02:40.527Z,3.63
2018-01-26T06:05:08.089Z,3.57
2018-01-26T06:07:35.687Z,3.40
2018-01-26T06:10:03.254Z,3.50
2018-01-26T06:12:30.841Z,2.83
2018-01-26T06:14:58.421Z,2.97
2018-01-26T06:17:26.002Z,3.30
2018-01-26T06:19:54.333Z,3.50
2018-01-26T06:22:21.921Z,5.70
2018-01-26T06:24:49.514Z,7.93
2018-01-26T06:27:17.077Z,7.60
2018-01-26T06:29:44.667Z,8.17
2018-01-26T06:32:12.248Z,7.47
2018-01-26T06:34:39.841Z,7.20
2018-01-26T06:37:08.177Z,6.50
2018-01-26T06:39:35.771Z,6.90
2018-01-26T06:42:04.106Z,5.43
2018-01-26T06:44:31.747Z,4.57
2018-01-26T06:46:59.304Z,4.30
2018-01-26T06:49:26.926Z,4.37
2018-01-26T06:51:54.476Z,4.97
2018-01-26T06:54:22.068Z,4.80
2018-01-26T06:56:49.654Z,6.40
2018-01-26T06:59:17.246Z,6.43
2018-01-26T07:01:44.822Z,5.20
2018-01-26T07:04:12.440Z,4.63
2018-01-26T07:06:40.006Z,3.50
2018-01-26T07:09:07.598Z,3.43
2018-01-26T07:11:35.165Z,4.00
2018-01-26T07:14:03.523Z,4.37
2018-01-26T07:16:31.094Z,4.37
2018-01-26T07:18:59.706Z,4.33
2018-01-26T07:21:27.271Z,4.43
2018-01-26T07:23:54.862Z,4.93
2018-01-26T07:26:22.429Z,5.17
2018-01-26T07:28:50.020Z,5.07
2018-01-26T07:31:18.346Z,5.23
2018-01-26T07:33:45.935Z,5.80
2018-01-26T07:36:13.512Z,5.83
2018-01-26T07:38:41.882Z,7.23
2018-01-26T07:41:10.213Z,7.80
2018-01-26T07:43:37.775Z,5.77
2018-01-26T07:46:05.369Z,6.60
2018-01-26T07:48:32.935Z,8.00
2018-01-26T07:51:01.306Z,10.47
2018-01-26T07:53:28.879Z,8.03
2018-01-26T07:55:57.241Z,7.77
2018-01-26T07:58:24.813Z,8.63
2018-01-26T08:00:52.402Z,7.87
2018-01-26T08:03:19.970Z,7.40
2018-01-26T08:05:47.558Z,7.80
2018-01-26T08:08:15.130Z,7.50
2018-01-26T08:10:42.721Z,9.00
2018-01-26T08:13:11.070Z,8.30
2018-01-26T08:15:38.673Z,10.20
2018-01-26T08:18:06.244Z,8.73
2018-01-26T08:20:33.829Z,8.87
2018-01-26T08:23:01.398Z,9.00
2018-01-26T08:25:28.985Z,9.70
2018-01-26T08:27:56.554Z,9.93
2018-01-26T08:30:24.910Z,8.93
2018-01-26T08:32:53.250Z,9.43
2018-01-26T08:35:20.838Z,9.20
2018-01-26T08:37:48.405Z,9.60
2018-01-26T08:40:15.997Z,9.37
2018-01-26T08:42:43.567Z,8.50
2018-01-26T08:45:11.933Z,9.03
2018-01-26T08:47:39.502Z,8.60
2018-01-26T08:50:07.101Z,8.77
2018-01-26T08:52:34.670Z,8.63
2018-01-26T08:55:02.246Z,10.43
2018-01-26T08:57:30.604Z,9.67
2018-01-26T08:59:58.188Z,10.13
2018-01-26T09:02:25.776Z,9.50
2018-01-26T09:04:53.351Z,10.13
2018-01-26T09:07:20.954Z,8.90
2018-01-26T09:09:48.530Z,8.13
2018-01-26T09:12:16.885Z,8.50
2018-01-26T09:14:44.462Z,8.00
2018-01-26T09:17:12.064Z,8.10
2018-01-26T09:19:39.632Z,7.60
2018-01-26T09:22:07.217Z,7.60
2018-01-26T09:24:34.786Z,7.40
2018-01-26T09:27:03.132Z,7.60
2018-01-26T09:29:32.346Z,8.60
2018-01-26T09:31:59.938Z,7.70
2018-01-26T09:34:28.282Z,8.00
2018-01-26T09:36:55.909Z,7.37
2018-01-26T09:39:23.472Z,6.43
2018-01-26T09:41:51.057Z,6.37
2018-01-26T09:44:18.616Z,6.70
2018-01-26T09:46:46.218Z,6.00
2018-01-26T09:49:13.782Z,6.57
2018-01-26T09:51:41.374Z,6.77
2018-01-26T09:54:08.941Z,7.10
2018-01-26T09:56:37.083Z,6.97
2018-01-26T09:59:04.650Z,7.10
2018-01-26T10:01:32.241Z,5.07
2018-01-26T10:03:59.814Z,5.20
2018-01-26T10:06:27.405Z,5.33
2018-01-26T10:08:54.975Z,4.50
2018-01-26T10:11:23.345Z,5.00
2018-01-26T10:13:50.929Z,4.70
2018-01-26T10:16:18.495Z,4.80
2018-01-26T10:18:46.098Z,4.60
2018-01-26T10:21:13.657Z,4.67
2018-01-26T10:23:42.008Z,4.03
2018-01-26T10:26:09.581Z,6.83
2018-01-26T10:28:37.176Z,6.90
2018-01-26T10:31:04.937Z,5.53
2018-01-26T10:33:32.527Z,7.40
2018-01-26T10:36:00.148Z,8.00
2018-01-26T10:38:27.718Z,7.43
2018-01-26T10:40:55.282Z,6.53
2018-01-26T10:43:22.870Z,6.90
2018-01-26T10:45:50.442Z,8.07
2018-01-26T10:48:18.041Z,6.57
2018-01-26T10:50:46.377Z,6.77
2018-01-26T10:53:13.963Z,7.00
2018-01-26T10:55:42.300Z,5.77
2018-01-26T10:58:09.888Z,5.60
2018-01-26T11:00:37.457Z,7.07
2018-01-26T11:03:05.811Z,5.67
2018-01-26T11:05:33.372Z,4.87
2018-01-26T11:08:00.957Z,6.80
2018-01-26T11:10:28.522Z,5.93
2018-01-26T11:12:56.870Z,4.97
2018-01-26T11:15:24.438Z,5.80
2018-01-26T11:17:52.022Z,4.20
2018-01-26T11:20:19.581Z,5.30
2018-01-26T11:22:47.941Z,5.40
2018-01-26T11:25:15.505Z,5.37
2018-01-26T11:27:43.837Z,5.00
2018-01-26T11:30:11.429Z,4.53
2018-01-26T11:32:39.017Z,4.93
2018-01-26T11:35:06.603Z,3.90
2018-01-26T11:37:34.169Z,3.97
2018-01-26T11:40:01.757Z,3.30
2018-01-26T11:42:29.322Z,3.40
2018-01-26T11:44:56.937Z,2.60
2018-01-26T11:47:24.510Z,2.90
2018-01-26T11:49:52.110Z,2.73
2018-01-26T11:52:19.681Z,2.53
2018-01-26T11:54:48.041Z,3.10
2018-01-26T11:57:16.626Z,2.83
2018-01-26T11:59:44.231Z,3.30
2018-01-26T12:02:11.906Z,2.50
2018-01-26T12:04:39.498Z,3.33
2018-01-26T12:07:07.065Z,3.40
2018-01-26T12:09:34.654Z,3.93
2018-01-26T12:12:02.222Z,4.07
2018-01-26T12:14:29.818Z,5.40
2018-01-26T12:16:57.387Z,5.00
2018-01-26T12:19:24.980Z,3.87
2018-01-26T12:21:53.313Z,3.77
2018-01-26T12:24:21.223Z,4.17
2018-01-26T12:26:49.875Z,4.03
2018-01-26T12:29:17.814Z,4.20
2018-01-26T12:31:45.726Z,5.37
2018-01-26T12:34:14.399Z,5.23
2018-01-26T12:36:42.036Z,3.67
2018-01-26T12:39:09.676Z,3.80
2018-01-26T12:41:37.246Z,2.70
2018-01-26T12:44:04.870Z,3.20
2018-01-26T12:46:33.237Z,3.50
2018-01-26T12:49:01.620Z,3.73
2018-01-26T12:51:29.989Z,3.87
2018-01-26T12:53:58.430Z,3.93
2018-01-26T12:56:26.090Z,4.00
2018-01-26T12:58:53.733Z,4.50
2018-01-26T13:01:21.372Z,4.30
2018-01-26T13:03:48.994Z,4.93
2018-01-26T13:06:16.632Z,3.80
2018-01-26T13:08:44.299Z,3.30
2018-01-26T13:11:11.949Z,3.87
2018-01-26T13:13:39.564Z,3.33
2018-01-26T13:16:07.978Z,3.70
2018-01-26T13:18:35.597Z,3.80
2018-01-26T13:21:03.955Z,3.23
2018-01-26T13:23:31.582Z,3.20
2018-01-26T13:25:59.224Z,4.20
2018-01-26T13:28:26.835Z,4.73
2018-01-26T13:30:54.483Z,4.30
2018-01-26T13:33:22.101Z,3.63
2018-01-26T13:35:49.698Z,3.70
2018-01-26T13:38:17.270Z,4.00
2018-01-26T13:40:44.886Z,3.87
2018-01-26T13:43:12.453Z,4.10
2018-01-26T13:45:40.044Z,3.63
2018-01-26T13:48:07.614Z,4.10
2018-01-26T13:50:35.206Z,4.03
2018-01-26T13:53:02.771Z,4.00
2018-01-26T13:55:30.360Z,4.17
2018-01-26T13:57:59.753Z,3.33
2018-01-26T14:00:27.359Z,3.40
2018-01-26T14:02:55.755Z,3.30
2018-01-26T14:05:23.301Z,3.60
2018-01-26T14:07:51.692Z,4.03
2018-01-26T14:10:19.270Z,3.77
2018-01-26T14:12:46.862Z,4.30
2018-01-26T14:15:14.421Z,3.70
2018-01-26T14:17:42.774Z,5.30
2018-01-26T14:20:10.337Z,4.90
2018-01-26T14:22:37.926Z,5.53
2018-01-26T14:25:05.498Z,5.07
2018-01-26T14:27:33.098Z,5.23
2018-01-26T14:30:00.665Z,5.73
2018-01-26T14:32:28.444Z,6.20
2018-01-26T14:34:56.001Z,4.70
2018-01-26T14:37:23.589Z,5.80
2018-01-26T14:39:51.156Z,4.97
2018-01-26T14:42:18.747Z,8.27
2018-01-26T14:44:46.318Z,7.57
2018-01-26T14:47:13.918Z,8.03
2018-01-26T14:49:41.485Z,7.10
2018-01-26T14:52:09.074Z,7.30
2018-01-26T14:54:37.410Z,7.33
2018-01-26T14:57:05.837Z,6.20
2018-01-26T14:59:33.421Z,10.47
2018-01-26T15:02:01.010Z,8.80
2018-01-26T15:04:30.093Z,8.53
2018-01-26T15:06:57.690Z,7.73
2018-01-26T15:09:25.253Z,5.50
2018-01-26T15:11:53.616Z,5.07
2018-01-26T15:14:21.193Z,10.00
2018-01-26T15:16:49.554Z,9.30
2018-01-26T15:19:17.126Z,6.70
2018-01-26T15:21:45.456Z,6.27
2018-01-26T15:24:13.045Z,5.47
2018-01-26T15:26:40.619Z,5.20
2018-01-26T15:29:08.973Z,5.00
2018-01-26T15:31:36.541Z,6.90
2018-01-26T15:34:04.143Z,6.33
2018-01-26T15:36:31.701Z,5.47
2018-01-26T15:38:59.291Z,6.70
2018-01-26T15:41:26.858Z,6.50
2018-01-26T15:43:54.749Z,5.80
2018-01-26T15:46:22.622Z,5.60
2018-01-26T15:48:50.517Z,6.50
2018-01-26T15:51:18.258Z,5.23
2018-01-26T15:53:46.675Z,4.73
2018-01-26T15:56:14.294Z,4.37
2018-01-26T15:58:41.936Z,4.50
2018-01-26T16:01:09.547Z,4.40
2018-01-26T16:03:37.192Z,4.10
2018-01-26T16:06:04.814Z,3.37
2018-01-26T16:08:32.457Z,4.33
2018-01-26T16:11:00.028Z,5.00
2018-01-26T16:13:27.677Z,5.20
2018-01-26T16:16:01.091Z,4.90
2018-01-26T16:18:28.737Z,4.47
2018-01-26T16:20:56.307Z,4.07
2018-01-26T16:23:23.949Z,4.47
2018-01-26T16:25:51.558Z,4.07
2018-01-26T16:30:53.853Z,4.00
2018-01-26T16:33:21.647Z,3.80
2018-01-26T16:35:49.269Z,5.63
2018-01-26T16:38:17.676Z,5.17
2018-01-26T16:40:45.317Z,5.07
2018-01-26T16:43:12.884Z,5.00
2018-01-26T16:45:40.528Z,5.27
2018-01-26T16:48:08.140Z,7.43
2018-01-26T16:50:35.778Z,8.30
2018-01-26T16:53:03.392Z,8.30
2018-01-26T16:55:31.075Z,10.53
2018-01-26T16:57:58.698Z,10.80
2018-01-26T17:00:26.290Z,11.00
2018-01-26T17:02:54.683Z,12.20
2018-01-26T17:05:22.583Z,11.57
2018-01-26T17:07:50.517Z,11.30
2018-01-26T17:10:18.430Z,12.17
2018-01-26T17:12:45.996Z,12.63
2018-01-26T17:15:13.595Z,11.53
2018-01-26T17:17:41.165Z,10.57
2018-01-26T17:20:08.756Z,10.23
2018-01-26T17:22:36.372Z,35.27
2018-01-26T17:25:03.978Z,78.93
2018-01-26T17:27:31.600Z,72.97
2018-01-26T17:29:59.197Z,33.90
2018-01-26T17:32:26.768Z,43.17
2018-01-26T17:34:54.372Z,27.80
2018-01-26T17:37:21.947Z,19.87
2018-01-26T17:39:49.596Z,23.90
2018-01-26T17:42:17.212Z,25.03
2018-01-26T17:44:44.813Z,25.93
2018-01-26T17:47:13.937Z,17.67
2018-01-26T17:49:41.573Z,15.57
2018-01-26T17:52:09.200Z,14.20
2018-01-26T17:54:36.920Z,15.73
2018-01-26T17:57:04.553Z,12.10
2018-01-26T17:59:32.346Z,12.87
2018-01-26T18:01:59.992Z,13.00
2018-01-26T18:04:27.604Z,20.60
2018-01-26T18:06:55.233Z,22.50
2018-01-26T18:09:22.857Z,17.03
2018-01-26T18:11:50.505Z,25.60
2018-01-26T18:14:18.884Z,12.03
2018-01-26T18:16:47.249Z,11.70
2018-01-26T18:19:14.821Z,11.60
2018-01-26T18:21:43.210Z,14.20
2018-01-26T18:24:10.789Z,16.70
2018-01-26T18:26:38.377Z,11.80
2018-01-26T18:29:05.950Z,13.37
2018-01-26T18:31:33.597Z,12.90
2018-01-26T18:34:01.220Z,13.43
2018-01-26T18:36:29.663Z,16.23
2018-01-26T18:38:57.229Z,16.40
2018-01-26T18:41:25.590Z,16.70
2018-01-26T18:43:53.182Z,29.67
2018-01-26T18:46:20.778Z,19.33
2018-01-26T18:48:49.064Z,20.10
2018-01-26T18:51:17.478Z,17.33
2018-01-26T18:53:45.051Z,14.90
2018-01-26T18:56:12.641Z,12.10
2018-01-26T18:58:40.229Z,19.70
2018-01-26T19:01:07.894Z,17.17
2018-01-26T19:03:35.469Z,23.50
2018-01-26T19:06:03.881Z,16.27
2018-01-26T19:08:31.453Z,15.13
2018-01-26T19:10:59.093Z,17.40
2018-01-26T19:13:26.662Z,18.40
2018-01-26T19:15:54.305Z,20.27
2018-01-26T19:18:22.657Z,23.17
2018-01-26T19:20:50.405Z,20.60
2018-01-26T19:23:17.982Z,24.47
2018-01-26T19:25:45.605Z,16.10
2018-01-26T19:28:13.203Z,12.77
2018-01-26T19:30:40.838Z,15.27
2018-01-26T19:33:08.433Z,13.70
2018-01-26T19:35:36.056Z,12.90
2018-01-26T19:38:03.713Z,14.10
2018-01-26T19:40:32.109Z,14.90
2018-01-26T19:42:59.752Z,16.00
2018-01-26T19:45:27.424Z,14.00
2018-01-26T19:47:55.077Z,12.67
2018-01-26T19:50:22.649Z,12.60
2018-01-26T19:52:50.293Z,12.37
2018-01-26T19:55:17.861Z,13.43
2018-01-26T19:57:45.506Z,11.83
2018-01-26T20:00:13.129Z,11.20
2018-01-26T20:02:40.760Z,11.33
2018-01-26T20:05:26.077Z,14.80
2018-01-26T20:08:00.472Z,18.80
2018-01-26T20:10:28.112Z,14.23
2018-01-26T20:13:01.370Z,17.87
2018-01-26T20:15:28.988Z,13.83
2018-01-26T20:17:57.404Z,13.07
2018-01-26T20:20:24.978Z,12.40
2018-01-26T20:22:52.635Z,11.73
2018-01-26T20:25:21.008Z,9.63
2018-01-26T20:27:48.654Z,8.80
2018-01-26T20:30:16.277Z,8.77
2018-01-26T20:32:43.893Z,8.77
2018-01-26T20:35:12.468Z,11.40
2018-01-26T20:37:40.112Z,7.00
2018-01-26T20:40:07.734Z,6.90
2018-01-26T20:42:36.085Z,6.50
2018-01-26T20:45:03.707Z,6.93
2018-01-26T20:47:31.348Z,5.80
2018-01-26T20:49:59.763Z,5.57
2018-01-26T20:52:27.934Z,6.30
2018-01-26T20:54:55.573Z,6.07
2018-01-26T20:57:23.195Z,5.17
2018-01-26T20:59:50.786Z,4.93
2018-01-26T21:02:18.351Z,5.13
2018-01-26T21:04:45.996Z,5.13
2018-01-26T21:07:14.381Z,5.70
2018-01-26T21:09:42.024Z,4.80
2018-01-26T21:12:09.631Z,5.20
2018-01-26T21:14:37.268Z,6.80
2018-01-26T21:17:04.883Z,10.33
2018-01-26T21:19:32.521Z,7.90
2018-01-26T21:22:00.159Z,8.20
2018-01-26T21:24:27.807Z,27.40
2018-01-26T21:26:55.441Z,16.83
2018-01-26T21:29:23.067Z,7.17
2018-01-26T21:31:50.685Z,9.03
2018-01-26T21:34:18.329Z,21.83
2018-01-26T21:36:45.902Z,18.23
2018-01-26T21:39:14.329Z,18.17
2018-01-26T21:41:41.962Z,17.63
2018-01-26T21:44:09.557Z,10.70
2018-01-26T21:46:37.183Z,17.10
2018-01-26T21:49:04.917Z,13.37
2018-01-26T21:51:32.493Z,5.10
2018-01-26T21:54:00.159Z,10.33
2018-01-26T21:56:27.776Z,6.53
2018-01-26T21:58:55.351Z,7.43
2018-01-26T22:01:22.984Z,12.97
2018-01-26T22:03:50.554Z,11.27
2018-01-26T22:06:23.832Z,10.77
2018-01-26T22:08:51.405Z,11.70
2018-01-26T22:11:19.046Z,12.90
2018-01-26T22:13:46.670Z,12.10
2018-01-26T22:16:14.265Z,11.57
2018-01-26T22:18:41.870Z,11.37
2018-01-26T22:21:10.273Z,13.03
2018-01-26T22:23:37.889Z,11.27
2018-01-26T22:26:05.534Z,7.20
2018-01-26T22:28:34.034Z,6.70
2018-01-26T22:31:02.435Z,7.20
2018-01-26T22:33:30.051Z,10.00
2018-01-26T22:35:57.695Z,10.40
2018-01-26T22:38:26.091Z,24.80
2018-01-26T22:40:53.737Z,22.93
2018-01-26T22:43:21.365Z,54.53
2018-01-26T22:45:48.963Z,19.37
2018-01-26T22:48:16.536Z,11.97
2018-01-26T22:50:44.178Z,8.63
2018-01-26T22:53:11.840Z,9.53
2018-01-26T22:55:40.273Z,5.27
2018-01-26T22:58:07.880Z,6.13
2018-01-26T23:00:35.475Z,5.97
2018-01-26T23:03:03.861Z,5.90
2018-01-26T23:05:32.266Z,5.77
2018-01-26T23:08:00.044Z,5.80
2018-01-26T23:10:27.684Z,6.30
2018-01-26T23:12:55.253Z,6.43
2018-01-26T23:15:22.863Z,8.83
2018-01-26T23:17:50.461Z,7.00
2018-01-26T23:20:18.030Z,8.53
2018-01-26T23:22:45.681Z,7.40
2018-01-26T23:25:13.302Z,6.40
2018-01-26T23:27:40.940Z,7.70
2018-01-26T23:30:08.556Z,6.80
2018-01-26T23:32:36.193Z,7.77
2018-01-26T23:35:03.806Z,8.00
2018-01-26T23:37:31.435Z,6.77
2018-01-26T23:39:59.058Z,7.00
2018-01-26T23:42:26.695Z,7.47
2018-01-26T23:44:54.270Z,6.63
2018-01-26T23:47:21.863Z,6.60
2018-01-26T23:49:49.496Z,7.10
2018-01-26T23:52:17.123Z,8.47
2018-01-26T23:54:45.453Z,9.47
2018-01-26T23:57:13.867Z,7.83
2018-01-26T23:59:41.433Z,8.53
